sensor_id;sensor_type;location;lat;lon;timestamp;temperature;humidity
43995;DHT22;51687;52.160;5.298;2023-08-06T08:05:18;19.70;71.30
43995;DHT22;51687;52.160;5.298;2023-08-06T08:07:44;19.60;71.40
43995;DHT22;51687;52.160;5.298;2023-08-06T08:10:11;19.60;71.00
43995;DHT22;51687;52.160;5.298;2023-08-06T08:12:38;19.60;71.00
43995;DHT22;51687;52.160;5.298;2023-08-06T08:15:05;19.60;70.90
43995;DHT22;51687;52.160;5.298;2023-08-06T08:17:32;19.40;70.30
43995;DHT22;51687;52.160;5.298;2023-08-06T08:19:59;19.60;71.10
43995;DHT22;51687;52.160;5.298;2023-08-06T08:22:26;19.60;71.00
43995;DHT22;51687;52.160;5.298;2023-08-06T08:24:52;19.60;71.10
43995;DHT22;51687;52.160;5.298;2023-08-06T08:27:19;19.50;71.10
43995;DHT22;51687;52.160;5.298;2023-08-06T08:29:46;19.50;71.40
43995;DHT22;51687;52.160;5.298;2023-08-06T08:32:12;19.50;71.40
43995;DHT22;51687;52.160;5.298;2023-08-06T08:34:39;19.50;71.60
43995;DHT22;51687;52.160;5.298;2023-08-06T08:37:06;19.50;71.60
43995;DHT22;51687;52.160;5.298;2023-08-06T08:39:33;19.50;71.60
43995;DHT22;51687;52.160;5.298;2023-08-06T08:41:59;19.40;71.80
43995;DHT22;51687;52.160;5.298;2023-08-06T08:44:27;19.40;71.90
43995;DHT22;51687;52.160;5.298;2023-08-06T08:46:56;19.40;71.80
43995;DHT22;51687;52.160;5.298;2023-08-06T08:49:24;19.30;72.00
43995;DHT22;51687;52.160;5.298;2023-08-06T08:51:53;19.30;72.40
43995;DHT22;51687;52.160;5.298;2023-08-06T08:54:23;19.30;72.40
43995;DHT22;51687;52.160;5.298;2023-08-06T08:56:50;19.30;72.50
43995;DHT22;51687;52.160;5.298;2023-08-06T08:59:17;19.30;72.50
43995;DHT22;51687;52.160;5.298;2023-08-06T09:01:46;19.30;72.60
43995;DHT22;51687;52.160;5.298;2023-08-06T09:04:18;19.30;72.60
43995;DHT22;51687;52.160;5.298;2023-08-06T09:06:50;19.30;72.70
43995;DHT22;51687;52.160;5.298;2023-08-06T09:09:26;19.30;72.90
43995;DHT22;51687;52.160;5.298;2023-08-06T09:11:55;19.30;73.10
43995;DHT22;51687;52.160;5.298;2023-08-06T09:14:26;19.30;73.00
43995;DHT22;51687;52.160;5.298;2023-08-06T09:16:54;19.30;73.00
43995;DHT22;51687;52.160;5.298;2023-08-06T09:19:21;19.30;73.10
43995;DHT22;51687;52.160;5.298;2023-08-06T09:21:51;19.30;73.10
43995;DHT22;51687;52.160;5.298;2023-08-06T09:24:18;19.30;73.00
43995;DHT22;51687;52.160;5.298;2023-08-06T09:26:45;19.30;72.80
43995;DHT22;51687;52.160;5.298;2023-08-06T09:29:12;19.30;72.60
43995;DHT22;51687;52.160;5.298;2023-08-06T09:31:49;19.30;73.00
43995;DHT22;51687;52.160;5.298;2023-08-06T09:34:21;19.30;73.20
43995;DHT22;51687;52.160;5.298;2023-08-06T09:36:53;19.30;73.40
43995;DHT22;51687;52.160;5.298;2023-08-06T09:39:26;19.30;73.70
43995;DHT22;51687;52.160;5.298;2023-08-06T09:41:59;19.30;73.70
43995;DHT22;51687;52.160;5.298;2023-08-06T09:44:28;19.30;73.70
43995;DHT22;51687;52.160;5.298;2023-08-06T09:46:56;19.30;73.90
43995;DHT22;51687;52.160;5.298;2023-08-06T09:51:54;19.30;73.40
43995;DHT22;51687;52.160;5.298;2023-08-06T09:54:25;19.30;73.70
43995;DHT22;51687;52.160;5.298;2023-08-06T09:56:54;19.30;74.00
43995;DHT22;51687;52.160;5.298;2023-08-06T09:59:23;19.30;73.80
43995;DHT22;51687;52.160;5.298;2023-08-06T10:01:50;19.30;74.00
43995;DHT22;51687;52.160;5.298;2023-08-06T10:04:20;19.30;74.30
43995;DHT22;51687;52.160;5.298;2023-08-06T10:06:50;19.30;74.20
43995;DHT22;51687;52.160;5.298;2023-08-06T10:09:17;19.30;74.00
43995;DHT22;51687;52.160;5.298;2023-08-06T10:11:50;19.30;73.90
43995;DHT22;51687;52.160;5.298;2023-08-06T10:14:35;19.30;74.20
43995;DHT22;51687;52.160;5.298;2023-08-06T10:17:03;19.30;74.00
43995;DHT22;51687;52.160;5.298;2023-08-06T10:19:31;19.30;74.00
43995;DHT22;51687;52.160;5.298;2023-08-06T10:22:15;19.30;74.20
43995;DHT22;51687;52.160;5.298;2023-08-06T10:24:48;19.30;74.40
43995;DHT22;51687;52.160;5.298;2023-08-06T10:27:29;19.40;74.20
43995;DHT22;51687;52.160;5.298;2023-08-06T10:35:46;19.40;74.40
43995;DHT22;51687;52.160;5.298;2023-08-06T10:38:21;19.40;75.00
43995;DHT22;51687;52.160;5.298;2023-08-06T10:45:58;19.40;75.10
43995;DHT22;51687;52.160;5.298;2023-08-06T10:48:33;19.40;75.00
43995;DHT22;51687;52.160;5.298;2023-08-06T10:51:00;19.40;74.30
43995;DHT22;51687;52.160;5.298;2023-08-06T10:53:28;19.40;74.80
43995;DHT22;51687;52.160;5.298;2023-08-06T10:56:00;19.40;75.20
43995;DHT22;51687;52.160;5.298;2023-08-06T10:58:34;19.40;75.60
43995;DHT22;51687;52.160;5.298;2023-08-06T11:01:01;19.50;75.50
43995;DHT22;51687;52.160;5.298;2023-08-06T11:03:28;19.40;74.70
43995;DHT22;51687;52.160;5.298;2023-08-06T11:05:55;19.40;74.90
43995;DHT22;51687;52.160;5.298;2023-08-06T11:08:46;19.40;74.70
43995;DHT22;51687;52.160;5.298;2023-08-06T11:11:15;19.40;74.10
43995;DHT22;51687;52.160;5.298;2023-08-06T11:13:46;19.40;74.40
43995;DHT22;51687;52.160;5.298;2023-08-06T11:16:14;19.40;74.30
43995;DHT22;51687;52.160;5.298;2023-08-06T11:18:42;19.40;74.40
43995;DHT22;51687;52.160;5.298;2023-08-06T11:21:09;19.40;74.30
43995;DHT22;51687;52.160;5.298;2023-08-06T11:23:36;19.40;74.60
43995;DHT22;51687;52.160;5.298;2023-08-06T11:26:03;19.40;74.40
43995;DHT22;51687;52.160;5.298;2023-08-06T11:28:30;19.40;74.50
43995;DHT22;51687;52.160;5.298;2023-08-06T11:30:57;19.50;74.20
43995;DHT22;51687;52.160;5.298;2023-08-06T11:33:28;19.50;74.90
43995;DHT22;51687;52.160;5.298;2023-08-06T11:35:56;19.50;74.20
43995;DHT22;51687;52.160;5.298;2023-08-06T11:38:28;19.50;74.00
43995;DHT22;51687;52.160;5.298;2023-08-06T11:40:56;19.50;73.70
43995;DHT22;51687;52.160;5.298;2023-08-06T11:43:23;19.50;73.50
43995;DHT22;51687;52.160;5.298;2023-08-06T11:45:50;19.50;72.70
43995;DHT22;51687;52.160;5.298;2023-08-06T11:48:17;19.40;72.80
43995;DHT22;51687;52.160;5.298;2023-08-06T11:50:44;19.40;73.00
43995;DHT22;51687;52.160;5.298;2023-08-06T11:53:13;19.40;73.20
43995;DHT22;51687;52.160;5.298;2023-08-06T11:55:41;19.40;73.40
43995;DHT22;51687;52.160;5.298;2023-08-06T11:58:09;19.40;73.60
43995;DHT22;51687;52.160;5.298;2023-08-06T12:00:36;19.40;73.50
43995;DHT22;51687;52.160;5.298;2023-08-06T12:03:04;19.40;73.40
43995;DHT22;51687;52.160;5.298;2023-08-06T12:05:32;19.40;73.90
43995;DHT22;51687;52.160;5.298;2023-08-06T12:08:02;19.30;73.80
43995;DHT22;51687;52.160;5.298;2023-08-06T12:10:30;19.30;73.90
43995;DHT22;51687;52.160;5.298;2023-08-06T12:12:57;19.30;74.30
43995;DHT22;51687;52.160;5.298;2023-08-06T12:15:24;19.30;74.10
43995;DHT22;51687;52.160;5.298;2023-08-06T12:17:51;19.20;74.20
43995;DHT22;51687;52.160;5.298;2023-08-06T12:20:18;19.20;74.30
43995;DHT22;51687;52.160;5.298;2023-08-06T12:22:44;19.20;74.30
43995;DHT22;51687;52.160;5.298;2023-08-06T12:25:13;19.20;74.40
43995;DHT22;51687;52.160;5.298;2023-08-06T12:27:44;19.20;74.60
43995;DHT22;51687;52.160;5.298;2023-08-06T12:30:12;19.20;75.00
43995;DHT22;51687;52.160;5.298;2023-08-06T12:32:39;19.20;74.90
43995;DHT22;51687;52.160;5.298;2023-08-06T12:35:07;19.20;75.00
43995;DHT22;51687;52.160;5.298;2023-08-06T12:37:35;19.20;75.10
43995;DHT22;51687;52.160;5.298;2023-08-06T12:40:02;19.20;75.20
43995;DHT22;51687;52.160;5.298;2023-08-06T12:42:45;19.20;75.10
43995;DHT22;51687;52.160;5.298;2023-08-06T12:45:12;19.20;75.10
43995;DHT22;51687;52.160;5.298;2023-08-06T12:47:39;19.20;75.20
43995;DHT22;51687;52.160;5.298;2023-08-06T12:50:06;19.20;75.50
43995;DHT22;51687;52.160;5.298;2023-08-06T12:52:34;19.20;75.60
43995;DHT22;51687;52.160;5.298;2023-08-06T12:55:01;19.30;75.50
43995;DHT22;51687;52.160;5.298;2023-08-06T12:57:28;19.30;75.60
43995;DHT22;51687;52.160;5.298;2023-08-06T13:00:13;19.30;75.80
43995;DHT22;51687;52.160;5.298;2023-08-06T13:02:39;19.30;75.70
43995;DHT22;51687;52.160;5.298;2023-08-06T13:05:06;19.30;76.00
43995;DHT22;51687;52.160;5.298;2023-08-06T13:07:33;19.30;76.10
43995;DHT22;51687;52.160;5.298;2023-08-06T13:10:00;19.30;76.30
43995;DHT22;51687;52.160;5.298;2023-08-06T13:12:27;19.30;76.20
43995;DHT22;51687;52.160;5.298;2023-08-06T13:14:53;19.30;76.10
43995;DHT22;51687;52.160;5.298;2023-08-06T13:17:23;19.30;76.20
43995;DHT22;51687;52.160;5.298;2023-08-06T13:19:50;19.30;76.20
43995;DHT22;51687;52.160;5.298;2023-08-06T13:22:17;19.30;76.30
43995;DHT22;51687;52.160;5.298;2023-08-06T13:24:44;19.30;76.20
43995;DHT22;51687;52.160;5.298;2023-08-06T13:27:11;19.30;76.20
43995;DHT22;51687;52.160;5.298;2023-08-06T13:29:37;19.20;76.30
43995;DHT22;51687;52.160;5.298;2023-08-06T13:32:05;19.30;76.50
43995;DHT22;51687;52.160;5.298;2023-08-06T13:34:32;19.30;76.70
43995;DHT22;51687;52.160;5.298;2023-08-06T13:36:58;19.30;76.90
43995;DHT22;51687;52.160;5.298;2023-08-06T13:39:25;19.30;76.80
43995;DHT22;51687;52.160;5.298;2023-08-06T13:41:52;19.30;76.70
43995;DHT22;51687;52.160;5.298;2023-08-06T13:44:18;19.30;76.70
43995;DHT22;51687;52.160;5.298;2023-08-06T13:46:45;19.30;76.70
43995;DHT22;51687;52.160;5.298;2023-08-06T13:49:12;19.30;76.80
43995;DHT22;51687;52.160;5.298;2023-08-06T13:51:39;19.40;77.10
43995;DHT22;51687;52.160;5.298;2023-08-06T13:54:06;19.30;77.10
43995;DHT22;51687;52.160;5.298;2023-08-06T13:56:34;19.40;77.10
43995;DHT22;51687;52.160;5.298;2023-08-06T13:59:01;19.40;77.00
43995;DHT22;51687;52.160;5.298;2023-08-06T14:01:28;19.40;77.10
43995;DHT22;51687;52.160;5.298;2023-08-06T14:04:15;19.40;77.40
43995;DHT22;51687;52.160;5.298;2023-08-06T14:06:41;19.40;77.40
43995;DHT22;51687;52.160;5.298;2023-08-06T14:09:08;19.40;77.40
43995;DHT22;51687;52.160;5.298;2023-08-06T14:11:35;19.40;77.50
43995;DHT22;51687;52.160;5.298;2023-08-06T14:14:02;19.40;78.10
43995;DHT22;51687;52.160;5.298;2023-08-06T14:16:30;19.50;77.70
43995;DHT22;51687;52.160;5.298;2023-08-06T14:18:56;19.40;77.70
43995;DHT22;51687;52.160;5.298;2023-08-06T14:21:25;19.50;77.90
43995;DHT22;51687;52.160;5.298;2023-08-06T14:23:52;19.40;77.70
43995;DHT22;51687;52.160;5.298;2023-08-06T14:26:19;19.50;78.00
43995;DHT22;51687;52.160;5.298;2023-08-06T14:28:46;19.50;77.90
43995;DHT22;51687;52.160;5.298;2023-08-06T14:31:13;19.50;77.70
43995;DHT22;51687;52.160;5.298;2023-08-06T14:33:40;19.50;77.80
43995;DHT22;51687;52.160;5.298;2023-08-06T14:36:06;19.50;78.10
43995;DHT22;51687;52.160;5.298;2023-08-06T14:38:33;19.50;77.90
43995;DHT22;51687;52.160;5.298;2023-08-06T14:41:12;19.50;77.80
43995;DHT22;51687;52.160;5.298;2023-08-06T17:50:26;19.50;77.60
43995;DHT22;51687;52.160;5.298;2023-08-06T17:52:54;19.10;69.70
43995;DHT22;51687;52.160;5.298;2023-08-06T17:55:20;19.10;69.90
43995;DHT22;51687;52.160;5.298;2023-08-06T17:57:48;19.10;69.70
43995;DHT22;51687;52.160;5.298;2023-08-06T18:00:15;19.10;68.80
43995;DHT22;51687;52.160;5.298;2023-08-06T18:02:42;19.10;68.70
43995;DHT22;51687;52.160;5.298;2023-08-06T18:05:09;19.00;68.80
43995;DHT22;51687;52.160;5.298;2023-08-06T18:07:42;19.00;68.80
43995;DHT22;51687;52.160;5.298;2023-08-06T18:10:11;19.10;68.80
43995;DHT22;51687;52.160;5.298;2023-08-06T18:12:38;19.00;68.90
43995;DHT22;51687;52.160;5.298;2023-08-06T18:15:10;19.00;68.70
43995;DHT22;51687;52.160;5.298;2023-08-06T18:20:08;19.00;68.30
43995;DHT22;51687;52.160;5.298;2023-08-06T20:15:51;18.90;68.50
43995;DHT22;51687;52.160;5.298;2023-08-06T20:18:18;18.40;73.30
43995;DHT22;51687;52.160;5.298;2023-08-06T20:20:47;18.40;73.30
43995;DHT22;51687;52.160;5.298;2023-08-06T20:23:15;18.40;73.20
43995;DHT22;51687;52.160;5.298;2023-08-06T20:25:41;18.40;73.00
